createdAt,value
2018-07-25T00:01:30.891Z,16.20
2018-07-25T00:03:58.510Z,16.00
2018-07-25T00:06:26.075Z,14.40
2018-07-25T00:08:53.675Z,14.33
2018-07-25T00:11:21.235Z,14.23
2018-07-25T00:13:48.797Z,16.35
2018-07-25T00:16:16.426Z,14.90
2018-07-25T00:18:43.992Z,14.43
2018-07-25T00:21:11.549Z,15.10
2018-07-25T00:23:39.137Z,14.30
2018-07-25T00:26:06.699Z,15.00
2018-07-25T00:28:34.259Z,15.37
2018-07-25T00:31:01.867Z,14.57
2018-07-25T00:33:29.421Z,13.93
2018-07-25T00:35:57.753Z,16.03
2018-07-25T00:38:25.374Z,15.03
2018-07-25T00:40:53.710Z,15.83
2018-07-25T00:43:21.276Z,16.30
2018-07-25T00:45:48.886Z,17.00
2018-07-25T00:48:16.449Z,16.87
2018-07-25T00:50:44.012Z,15.80
2018-07-25T00:53:11.605Z,15.80
2018-07-25T00:55:39.174Z,15.80
2018-07-25T00:58:06.734Z,14.90
2018-07-25T01:00:34.366Z,14.63
2018-07-25T01:03:01.929Z,14.83
2018-07-25T01:05:29.492Z,14.97
2018-07-25T01:07:57.090Z,15.50
2018-07-25T01:10:24.651Z,16.03
2018-07-25T01:12:52.216Z,15.50
2018-07-25T01:15:19.813Z,16.73
2018-07-25T01:17:48.142Z,17.83
2018-07-25T01:20:15.701Z,15.93
2018-07-25T01:22:43.329Z,16.37
2018-07-25T01:25:10.887Z,16.53
2018-07-25T01:27:38.446Z,16.57
2018-07-25T01:30:06.069Z,16.80
2018-07-25T01:32:33.625Z,16.17
2018-07-25T01:35:01.204Z,17.55
2018-07-25T01:37:28.795Z,17.87
2018-07-25T01:39:56.354Z,16.10
2018-07-25T01:42:23.915Z,16.73
2018-07-25T01:44:51.541Z,17.03
2018-07-25T01:47:19.099Z,18.92
2018-07-25T01:49:46.667Z,18.42
2018-07-25T01:52:14.281Z,16.67
2018-07-25T01:54:41.858Z,16.00
2018-07-25T01:57:09.414Z,16.13
2018-07-25T01:59:37.019Z,15.53
2018-07-25T02:02:04.579Z,16.03
2018-07-25T02:04:32.139Z,16.13
2018-07-25T02:06:59.745Z,15.80
2018-07-25T02:09:27.339Z,16.40
2018-07-25T02:11:54.901Z,16.60
2018-07-25T02:14:22.497Z,16.40
2018-07-25T02:16:50.056Z,17.13
2018-07-25T02:19:18.377Z,16.87
2018-07-25T02:21:45.979Z,17.67
2018-07-25T02:24:13.539Z,18.17
2018-07-25T02:26:41.100Z,17.07
2018-07-25T02:29:08.708Z,16.97
2018-07-25T02:31:36.602Z,17.07
2018-07-25T02:34:04.173Z,17.93
2018-07-25T02:36:31.767Z,18.53
2018-07-25T02:38:59.360Z,18.10
2018-07-25T02:41:26.927Z,19.63
2018-07-25T02:43:54.581Z,17.90
2018-07-25T02:46:22.386Z,18.33
2018-07-25T02:48:49.941Z,23.07
2018-07-25T02:51:17.562Z,18.87
2018-07-25T02:53:45.121Z,18.57
2018-07-25T02:56:12.686Z,18.13
2018-07-25T02:58:40.286Z,17.73
2018-07-25T03:01:07.850Z,17.37
2018-07-25T03:03:35.413Z,18.00
2018-07-25T03:06:03.025Z,17.27
2018-07-25T03:08:31.366Z,18.70
2018-07-25T03:10:58.928Z,19.53
2018-07-25T03:13:26.558Z,17.97
2018-07-25T03:15:54.114Z,20.42
2018-07-25T03:18:21.677Z,18.97
2018-07-25T03:20:49.270Z,18.97
2018-07-25T03:23:16.836Z,18.70
2018-07-25T03:25:44.396Z,18.43
2018-07-25T03:28:11.989Z,19.10
2018-07-25T03:30:40.320Z,19.37
2018-07-25T03:33:07.882Z,20.20
2018-07-25T03:35:35.954Z,18.60
2018-07-25T03:38:03.549Z,19.77
2018-07-25T03:40:31.077Z,20.03
2018-07-25T03:42:58.674Z,18.93
2018-07-25T03:45:26.235Z,18.43
2018-07-25T03:47:53.800Z,18.60
2018-07-25T03:50:22.170Z,18.60
2018-07-25T03:52:49.738Z,19.50
2018-07-25T03:55:18.069Z,17.50
2018-07-25T03:57:45.686Z,18.33
2018-07-25T04:00:13.260Z,19.30
2018-07-25T04:02:40.846Z,19.17
2018-07-25T04:05:08.423Z,17.93
2018-07-25T04:07:35.986Z,19.63
2018-07-25T04:10:03.556Z,19.27
2018-07-25T04:12:31.154Z,19.97
2018-07-25T04:14:58.719Z,19.63
2018-07-25T04:17:27.048Z,19.53
2018-07-25T04:19:54.669Z,19.83
2018-07-25T04:22:22.228Z,18.93
2018-07-25T04:24:49.839Z,19.30
2018-07-25T04:27:17.385Z,20.10
2018-07-25T04:29:44.949Z,18.37
2018-07-25T04:32:12.508Z,19.03
2018-07-25T04:34:40.112Z,18.67
2018-07-25T04:37:07.670Z,18.73
2018-07-25T04:39:35.233Z,18.87
2018-07-25T04:42:02.839Z,18.80
2018-07-25T04:44:30.396Z,19.17
2018-07-25T04:46:57.992Z,19.30
2018-07-25T04:49:25.549Z,18.33
2018-07-25T04:51:53.115Z,18.43
2018-07-25T04:54:20.675Z,18.97
2018-07-25T04:56:48.273Z,22.60
2018-07-25T04:59:16.625Z,20.00
2018-07-25T05:01:44.182Z,19.00
2018-07-25T05:04:11.790Z,18.97
2018-07-25T05:06:39.349Z,19.73
2018-07-25T05:09:06.909Z,18.73
2018-07-25T05:11:34.515Z,19.20
2018-07-25T05:14:02.093Z,19.60
2018-07-25T05:16:29.654Z,18.77
2018-07-25T05:18:57.262Z,19.27
2018-07-25T05:21:24.823Z,18.67
2018-07-25T05:23:52.391Z,19.90
2018-07-25T05:26:20.042Z,19.93
2018-07-25T05:28:47.601Z,20.17
2018-07-25T05:31:15.170Z,20.30
2018-07-25T05:33:42.756Z,20.73
2018-07-25T05:36:10.323Z,20.67
2018-07-25T05:38:37.913Z,20.80
2018-07-25T05:41:05.520Z,20.50
2018-07-25T05:43:33.079Z,20.63
2018-07-25T05:46:00.639Z,22.80
2018-07-25T05:48:28.307Z,23.50
2018-07-25T05:50:55.882Z,22.83
2018-07-25T05:53:23.445Z,21.93
2018-07-25T05:55:51.058Z,21.70
2018-07-25T05:58:18.625Z,21.60
2018-07-25T06:00:46.955Z,21.20
2018-07-25T06:03:14.602Z,21.10
2018-07-25T06:05:42.908Z,21.03
2018-07-25T06:08:10.459Z,20.03
2018-07-25T06:10:38.066Z,19.33
2018-07-25T06:13:06.402Z,19.83
2018-07-25T06:15:33.957Z,19.67
2018-07-25T06:18:02.076Z,19.40
2018-07-25T06:20:29.682Z,18.33
2018-07-25T06:22:57.974Z,18.93
2018-07-25T06:25:25.582Z,17.87
2018-07-25T06:27:53.141Z,18.50
2018-07-25T06:30:21.504Z,18.60
2018-07-25T06:32:49.128Z,17.83
2018-07-25T06:35:16.697Z,19.03
2018-07-25T06:37:44.308Z,17.63
2018-07-25T06:40:12.255Z,17.17
2018-07-25T06:42:39.823Z,18.67
2018-07-25T06:45:07.387Z,18.95
2018-07-25T06:47:34.998Z,18.42
2018-07-25T06:50:02.622Z,15.40
2018-07-25T06:52:30.125Z,14.40
2018-07-25T06:54:57.729Z,15.13
2018-07-25T06:57:25.418Z,15.07
2018-07-25T06:59:52.909Z,16.33
2018-07-25T07:02:20.522Z,14.23
2018-07-25T07:04:48.110Z,14.80
2018-07-25T07:07:16.447Z,13.87
2018-07-25T07:09:44.073Z,13.97
2018-07-25T07:12:11.664Z,14.70
2018-07-25T07:14:53.412Z,13.17
2018-07-25T07:17:06.819Z,14.43
2018-07-25T07:19:42.110Z,13.13
2018-07-25T07:22:12.124Z,14.25
2018-07-25T07:24:39.670Z,14.10
2018-07-25T07:27:12.880Z,14.70
2018-07-25T07:29:40.445Z,13.60
2018-07-25T07:32:08.077Z,13.40
2018-07-25T07:34:35.638Z,13.63
2018-07-25T07:37:06.074Z,13.00
2018-07-25T07:39:33.683Z,13.07
2018-07-25T07:42:01.248Z,12.77
2018-07-25T07:44:28.808Z,12.83
2018-07-25T07:46:56.466Z,11.63
2018-07-25T07:49:24.099Z,13.10
2018-07-25T07:51:57.116Z,13.20
2018-07-25T07:54:24.693Z,12.80
2018-07-25T07:56:52.253Z,15.17
2018-07-25T07:59:19.834Z,14.57
2018-07-25T08:01:47.467Z,16.75
2018-07-25T08:04:15.028Z,15.30
2018-07-25T08:06:42.594Z,14.93
2018-07-25T08:09:10.250Z,14.60
2018-07-25T08:11:37.811Z,13.90
2018-07-25T08:14:05.371Z,13.67
2018-07-25T08:16:33.004Z,13.80
2018-07-25T08:19:00.566Z,13.20
2018-07-25T08:21:28.122Z,12.60
2018-07-25T08:23:55.734Z,14.17
2018-07-25T08:26:23.288Z,13.03
2018-07-25T08:28:50.854Z,13.30
2018-07-25T08:31:18.505Z,13.60
2018-07-25T08:33:46.061Z,12.53
2018-07-25T08:36:13.617Z,12.63
2018-07-25T08:38:41.236Z,12.53
2018-07-25T08:41:08.842Z,11.87
2018-07-25T08:43:36.358Z,11.90
2018-07-25T08:46:03.999Z,11.73
2018-07-25T08:48:31.561Z,11.63
2018-07-25T08:50:59.898Z,11.90
2018-07-25T08:53:27.516Z,12.37
2018-07-25T08:55:55.847Z,11.67
2018-07-25T08:58:23.414Z,10.90
2018-07-25T09:00:51.481Z,11.48
2018-07-25T09:03:19.039Z,11.63
2018-07-25T09:05:46.601Z,11.70
2018-07-25T09:08:14.235Z,11.07
2018-07-25T09:10:41.793Z,11.30
2018-07-25T09:13:09.384Z,11.47
2018-07-25T09:15:36.970Z,11.90
2018-07-25T09:18:04.537Z,10.77
2018-07-25T09:20:32.103Z,11.40
2018-07-25T09:22:59.708Z,11.37
2018-07-25T09:25:27.278Z,11.47
2018-07-25T09:27:54.830Z,10.70
2018-07-25T09:30:22.436Z,11.07
2018-07-25T09:32:49.998Z,10.67
2018-07-25T09:35:17.562Z,10.13
2018-07-25T09:37:45.187Z,10.95
2018-07-25T09:40:12.743Z,8.80
2018-07-25T09:42:40.300Z,9.00
2018-07-25T09:45:08.279Z,9.43
2018-07-25T09:47:35.841Z,9.07
2018-07-25T09:50:03.412Z,8.80
2018-07-25T09:52:31.788Z,8.60
2018-07-25T09:54:59.347Z,7.57
2018-07-25T09:57:26.901Z,7.90
2018-07-25T09:59:54.531Z,7.73
2018-07-25T10:02:22.101Z,6.33
2018-07-25T10:04:50.428Z,7.57
2018-07-25T10:07:18.056Z,8.10
2018-07-25T10:09:45.571Z,7.03
2018-07-25T10:12:13.108Z,7.40
2018-07-25T10:14:40.703Z,7.47
2018-07-25T10:17:09.035Z,7.50
2018-07-25T10:19:36.583Z,7.10
2018-07-25T10:22:04.248Z,6.87
2018-07-25T10:24:31.750Z,6.10
2018-07-25T10:26:59.300Z,7.23
2018-07-25T10:29:26.920Z,7.60
2018-07-25T10:31:54.473Z,7.20
2018-07-25T10:34:22.029Z,7.27
2018-07-25T10:36:49.654Z,7.53
2018-07-25T10:39:17.212Z,6.77
2018-07-25T10:41:44.767Z,7.30
2018-07-25T10:44:12.372Z,7.60
2018-07-25T10:46:39.958Z,7.20
2018-07-25T10:49:07.482Z,7.33
2018-07-25T10:51:35.709Z,7.07
2018-07-25T10:54:03.265Z,7.03
2018-07-25T10:56:30.864Z,6.73
2018-07-25T10:58:58.436Z,7.17
2018-07-25T11:01:26.759Z,6.77
2018-07-25T11:03:54.329Z,6.27
2018-07-25T11:06:22.439Z,6.57
2018-07-25T11:08:49.997Z,7.00
2018-07-25T11:11:17.551Z,6.50
2018-07-25T11:13:46.113Z,6.33
2018-07-25T11:16:13.911Z,6.70
2018-07-25T11:18:41.226Z,6.67
2018-07-25T11:21:08.821Z,6.50
2018-07-25T11:23:36.371Z,6.60
2018-07-25T11:26:03.928Z,6.50
2018-07-25T11:28:31.528Z,6.67
2018-07-25T11:30:59.853Z,6.50
2018-07-25T11:33:27.407Z,5.97
2018-07-25T11:35:55.004Z,6.23
2018-07-25T11:38:22.601Z,6.10
2018-07-25T11:40:50.118Z,6.35
2018-07-25T11:43:17.728Z,5.50
2018-07-25T11:45:45.283Z,4.93
2018-07-25T11:48:12.838Z,5.50
2018-07-25T11:50:41.203Z,5.20
2018-07-25T11:53:08.760Z,5.93
2018-07-25T11:55:36.465Z,5.70
2018-07-25T11:58:04.692Z,5.62
2018-07-25T12:00:32.247Z,5.67
2018-07-25T12:02:59.811Z,5.78
2018-07-25T12:05:27.401Z,5.43
2018-07-25T12:07:54.962Z,5.22
2018-07-25T12:10:23.280Z,4.80
2018-07-25T12:12:50.891Z,5.33
2018-07-25T12:15:18.462Z,5.30
2018-07-25T12:17:46.785Z,4.60
2018-07-25T12:20:14.392Z,4.50
2018-07-25T12:22:41.947Z,4.90
2018-07-25T12:25:09.512Z,5.60
2018-07-25T12:27:37.099Z,5.17
2018-07-25T12:30:04.664Z,5.77
2018-07-25T12:32:32.224Z,5.97
2018-07-25T12:34:59.822Z,5.67
2018-07-25T12:37:27.375Z,5.20
2018-07-25T12:39:54.928Z,5.07
2018-07-25T12:42:22.546Z,5.47
2018-07-25T12:44:50.896Z,5.17
2018-07-25T12:47:18.414Z,5.50
2018-07-25T12:49:46.695Z,5.40
2018-07-25T12:52:14.257Z,5.17
2018-07-25T12:54:41.810Z,5.73
2018-07-25T12:57:09.401Z,5.37
2018-07-25T12:59:36.958Z,6.20
2018-07-25T13:02:04.586Z,5.70
2018-07-25T13:04:32.223Z,5.60
2018-07-25T13:07:00.034Z,5.20
2018-07-25T13:09:27.586Z,5.50
2018-07-25T13:11:55.194Z,5.23
2018-07-25T13:14:22.753Z,5.40
2018-07-25T13:16:50.311Z,5.90
2018-07-25T13:19:18.672Z,5.20
2018-07-25T13:21:46.135Z,5.70
2018-07-25T13:24:13.692Z,5.90
2018-07-25T13:26:41.671Z,6.05
2018-07-25T13:29:09.231Z,6.00
2018-07-25T13:31:36.782Z,6.17
2018-07-25T13:34:07.112Z,5.23
2018-07-25T13:36:34.668Z,5.03
2018-07-25T13:39:02.229Z,6.03
2018-07-25T13:41:29.874Z,5.70
2018-07-25T13:43:57.427Z,6.27
2018-07-25T13:46:25.065Z,5.23
2018-07-25T13:48:52.594Z,5.77
2018-07-25T13:51:20.149Z,5.67
2018-07-25T13:53:47.710Z,5.72
2018-07-25T13:56:15.309Z,5.30
2018-07-25T13:58:42.866Z,5.50
2018-07-25T14:01:10.418Z,5.50
2018-07-25T14:03:38.978Z,5.33
2018-07-25T14:06:06.535Z,5.43
2018-07-25T14:08:34.093Z,5.30
2018-07-25T14:11:01.700Z,5.50
2018-07-25T14:13:30.028Z,5.73
2018-07-25T14:15:57.603Z,5.90
2018-07-25T14:18:25.809Z,5.60
2018-07-25T14:20:53.333Z,5.43
2018-07-25T14:23:20.934Z,5.10
2018-07-25T14:25:48.502Z,5.63
2018-07-25T14:28:16.819Z,5.90
2018-07-25T14:30:44.376Z,5.50
2018-07-25T14:33:11.981Z,5.47
2018-07-25T14:35:39.537Z,5.57
2018-07-25T14:38:07.096Z,5.32
2018-07-25T14:40:35.055Z,5.23
2018-07-25T14:43:02.610Z,6.20
2018-07-25T14:45:30.167Z,5.60
2018-07-25T14:47:57.797Z,5.13
2018-07-25T14:50:25.347Z,5.33
2018-07-25T14:52:53.668Z,5.00
2018-07-25T14:55:21.303Z,5.80
2018-07-25T14:57:48.859Z,5.43
2018-07-25T15:00:16.439Z,5.60
2018-07-25T15:02:44.094Z,5.77
2018-07-25T15:05:11.599Z,4.80
2018-07-25T15:07:39.162Z,5.20
2018-07-25T15:10:07.617Z,5.70
2018-07-25T15:12:35.172Z,5.30
2018-07-25T15:15:02.731Z,5.32
2018-07-25T15:17:30.716Z,5.25
2018-07-25T15:19:58.276Z,6.65
2018-07-25T15:22:25.837Z,6.05
2018-07-25T15:24:53.439Z,6.28
2018-07-25T15:27:20.995Z,5.87
2018-07-25T15:29:48.551Z,5.80
2018-07-25T15:32:16.171Z,5.90
2018-07-25T15:34:43.726Z,5.72
2018-07-25T15:37:11.283Z,5.95
2018-07-25T15:39:38.903Z,5.68
2018-07-25T15:42:06.469Z,5.68
2018-07-25T15:44:34.789Z,5.40
2018-07-25T15:47:02.453Z,5.55
2018-07-25T15:49:30.741Z,5.20
2018-07-25T15:51:58.293Z,5.55
2018-07-25T15:54:25.894Z,5.45
2018-07-25T15:56:53.447Z,5.20
2018-07-25T15:59:20.999Z,5.30
2018-07-25T16:01:48.654Z,5.50
2018-07-25T16:04:16.944Z,5.43
2018-07-25T16:06:44.504Z,5.12
2018-07-25T16:09:12.574Z,5.43
2018-07-25T16:11:40.134Z,5.18
2018-07-25T16:14:07.682Z,5.97
2018-07-25T16:16:35.279Z,5.93
2018-07-25T16:19:02.840Z,5.68
2018-07-25T16:21:30.404Z,6.03
2018-07-25T16:23:58.074Z,5.65
2018-07-25T16:26:25.598Z,5.82
2018-07-25T16:28:53.153Z,6.10
2018-07-25T16:31:20.755Z,5.65
2018-07-25T16:33:49.076Z,5.87
2018-07-25T16:36:16.621Z,6.30
2018-07-25T16:38:44.219Z,6.40
2018-07-25T16:41:11.780Z,5.53
2018-07-25T16:43:39.330Z,6.05
2018-07-25T16:46:07.406Z,6.82
2018-07-25T16:48:34.960Z,6.65
2018-07-25T16:51:02.515Z,6.87
2018-07-25T16:53:30.126Z,6.72
2018-07-25T16:55:57.686Z,7.05
2018-07-25T16:58:25.271Z,7.32
2018-07-25T17:00:52.842Z,7.00
2018-07-25T17:03:20.396Z,6.93
2018-07-25T17:05:48.720Z,7.93
2018-07-25T17:08:16.321Z,7.68
2018-07-25T17:10:43.880Z,6.95
2018-07-25T17:13:12.203Z,6.90
2018-07-25T17:15:39.801Z,7.20
2018-07-25T17:18:07.385Z,6.87
2018-07-25T17:20:35.747Z,7.18
2018-07-25T17:23:03.996Z,8.23
2018-07-25T17:25:31.545Z,7.65
2018-07-25T17:27:59.101Z,6.90
2018-07-25T17:30:26.701Z,7.25
2018-07-25T17:32:54.267Z,7.22
2018-07-25T17:35:21.841Z,6.55
2018-07-25T17:37:49.457Z,7.50
2018-07-25T17:40:17.742Z,7.78
2018-07-25T17:42:45.295Z,7.57
2018-07-25T17:45:12.898Z,7.37
2018-07-25T17:47:40.454Z,7.80
2018-07-25T17:50:08.015Z,7.60
2018-07-25T17:52:36.158Z,7.53
2018-07-25T17:55:03.706Z,7.70
2018-07-25T17:57:31.263Z,7.10
2018-07-25T17:59:58.867Z,7.30
2018-07-25T18:02:26.428Z,8.40
2018-07-25T18:04:54.002Z,8.40
2018-07-25T18:07:22.745Z,7.70
2018-07-25T18:09:50.298Z,8.00
2018-07-25T18:12:17.846Z,7.97
2018-07-25T18:14:45.447Z,7.80
2018-07-25T18:17:13.062Z,7.53
2018-07-25T18:19:40.574Z,7.17
2018-07-25T18:22:08.183Z,8.52
2018-07-25T18:24:35.740Z,8.18
2018-07-25T18:27:04.072Z,8.00
2018-07-25T18:29:31.671Z,8.43
2018-07-25T18:31:59.996Z,7.77
2018-07-25T18:34:27.611Z,8.10
2018-07-25T18:36:56.560Z,8.07
2018-07-25T18:39:24.110Z,8.27
2018-07-25T18:41:51.672Z,8.50
2018-07-25T18:44:19.645Z,8.00
2018-07-25T18:46:47.199Z,8.40
2018-07-25T18:49:14.761Z,8.37
2018-07-25T18:51:42.358Z,7.70
2018-07-25T18:54:09.908Z,8.67
2018-07-25T18:56:37.462Z,8.17
2018-07-25T18:59:05.945Z,8.43
2018-07-25T19:01:33.500Z,8.60
2018-07-25T19:04:01.055Z,8.23
2018-07-25T19:06:28.656Z,8.63
2018-07-25T19:08:56.210Z,8.97
2018-07-25T19:11:23.764Z,8.40
2018-07-25T19:13:51.997Z,8.17
2018-07-25T19:16:19.546Z,8.67
2018-07-25T19:18:47.139Z,8.00
2018-07-25T19:21:14.932Z,8.50
2018-07-25T19:23:42.479Z,8.80
2018-07-25T19:26:09.987Z,8.87
2018-07-25T19:28:38.359Z,8.30
2018-07-25T19:31:06.884Z,8.60
2018-07-25T19:33:34.626Z,9.10
2018-07-25T19:36:02.953Z,8.73
2018-07-25T19:38:30.510Z,8.23
2018-07-25T19:40:58.072Z,9.30
2018-07-25T19:43:25.760Z,8.70
2018-07-25T19:45:53.302Z,8.40
2018-07-25T19:48:20.857Z,9.20
2018-07-25T19:50:48.501Z,9.35
2018-07-25T19:53:16.052Z,8.87
2018-07-25T19:55:43.608Z,9.40
2018-07-25T19:58:11.216Z,9.17
2018-07-25T20:00:38.785Z,9.63
2018-07-25T20:03:06.337Z,9.70
2018-07-25T20:05:33.958Z,9.33
2018-07-25T20:08:01.518Z,10.13
2018-07-25T20:10:29.078Z,10.10
2018-07-25T20:12:57.069Z,9.63
2018-07-25T20:15:27.213Z,9.30
2018-07-25T20:17:54.835Z,9.03
2018-07-25T20:20:22.417Z,9.82
2018-07-25T20:22:49.981Z,9.50
2018-07-25T20:25:17.535Z,9.43
2018-07-25T20:27:51.622Z,9.53
2018-07-25T20:30:19.140Z,9.53
2018-07-25T20:32:46.697Z,8.83
2018-07-25T20:35:14.372Z,10.43
2018-07-25T20:37:41.935Z,10.60
2018-07-25T20:40:10.262Z,10.03
2018-07-25T20:42:40.225Z,10.43
2018-07-25T20:45:07.696Z,11.57
2018-07-25T20:47:35.238Z,11.13
2018-07-25T20:50:03.391Z,10.60
2018-07-25T20:52:30.960Z,10.47
2018-07-25T20:54:58.531Z,11.50
2018-07-25T20:57:26.487Z,10.83
2018-07-25T20:59:54.047Z,11.27
2018-07-25T21:02:21.617Z,10.85
2018-07-25T21:04:49.241Z,10.17
2018-07-25T21:07:16.802Z,10.60
2018-07-25T21:09:44.361Z,10.73
2018-07-25T21:12:12.000Z,11.10
2018-07-25T21:14:40.332Z,10.90
2018-07-25T21:17:07.890Z,10.90
2018-07-25T21:19:35.531Z,10.80
2018-07-25T21:22:03.136Z,11.50
2018-07-25T21:24:30.661Z,11.00
2018-07-25T21:26:58.268Z,10.07
2018-07-25T21:29:26.624Z,11.67
2018-07-25T21:31:54.160Z,10.70
2018-07-25T21:34:21.803Z,11.53
2018-07-25T21:36:49.362Z,11.73
2018-07-25T21:39:16.927Z,11.47
2018-07-25T21:41:44.568Z,10.70
2018-07-25T21:44:12.895Z,10.97
2018-07-25T21:46:40.465Z,10.80
2018-07-25T21:49:08.108Z,10.63
2018-07-25T21:51:35.665Z,10.93
2018-07-25T21:54:03.225Z,10.77
2018-07-25T21:56:30.855Z,11.37
2018-07-25T21:58:59.184Z,10.40
2018-07-25T22:01:26.744Z,11.00
2018-07-25T22:03:54.373Z,11.57
2018-07-25T22:06:21.909Z,11.17
2018-07-25T22:08:50.257Z,10.80
2018-07-25T22:11:17.847Z,11.60
2018-07-25T22:13:45.413Z,11.90
2018-07-25T22:16:13.746Z,12.50
2018-07-25T22:18:41.352Z,13.40
2018-07-25T22:21:09.683Z,12.80
2018-07-25T22:23:37.244Z,13.30
2018-07-25T22:26:04.850Z,12.40
2018-07-25T22:28:32.420Z,13.07
2018-07-25T22:31:00.760Z,12.40
2018-07-25T22:33:28.346Z,12.87
2018-07-25T22:35:55.905Z,12.23
2018-07-25T22:38:23.462Z,14.30
2018-07-25T22:40:51.073Z,13.57
2018-07-25T22:43:18.639Z,14.90
2018-07-25T22:45:46.200Z,13.60
2018-07-25T22:48:14.176Z,13.43
2018-07-25T22:50:41.736Z,13.23
2018-07-25T22:53:09.294Z,13.10
2018-07-25T22:55:36.930Z,12.83
2018-07-25T22:58:04.459Z,13.67
2018-07-25T23:00:32.031Z,13.20
2018-07-25T23:02:59.628Z,12.43
2018-07-25T23:05:27.234Z,13.23
2018-07-25T23:07:54.758Z,13.10
2018-07-25T23:10:22.759Z,14.10
2018-07-25T23:12:50.321Z,12.53
2018-07-25T23:15:17.879Z,12.53
2018-07-25T23:17:45.483Z,13.67
2018-07-25T23:20:13.815Z,12.97
2018-07-25T23:22:41.378Z,13.00
2018-07-25T23:25:08.977Z,14.70
2018-07-25T23:27:37.315Z,14.50
2018-07-25T23:30:04.881Z,14.57
2018-07-25T23:32:32.511Z,13.53
2018-07-25T23:35:00.067Z,12.97
2018-07-25T23:37:27.630Z,12.00
2018-07-25T23:39:55.233Z,11.50
2018-07-25T23:42:22.801Z,13.37
2018-07-25T23:44:50.365Z,12.23
2018-07-25T23:47:17.957Z,13.62
2018-07-25T23:49:46.294Z,11.80
2018-07-25T23:52:13.848Z,12.97
2018-07-25T23:54:41.474Z,13.57
2018-07-25T23:57:09.029Z,13.13
2018-07-25T23:59:36.585Z,13.80
